Time;durP1;ratioP1;P1;durP2;ratioP2;P2;SDS_P1;SDS_P2;PMS_P1;PMS_P2;Temp;Humidity;BMP_temperature;BMP_pressure;BME280_temperature;BME280_humidity;BME280_pressure;Samples;Min_cycle;Max_cycle;Signal;HPM_P1;HPM_P2
2021/05/23 00:00:29;;;;;;;86.42;13.68;;;;;;;9.61;96.83;100689.77;1739065;82;20962;-40
2021/05/23 00:02:58;;;;;;;68.65;12.37;;;;;;;9.60;96.68;100685.47;1739047;82;21011;-41
2021/05/23 00:05:27;;;;;;;65.52;13.45;;;;;;;9.54;96.35;100685.52;1738893;82;21033;-41
2021/05/23 00:08:00;;;;;;;68.17;12.68;;;;;;;9.44;96.18;100683.45;1739010;82;20985;-41
2021/05/23 00:10:27;;;;;;;87.35;13.98;;;;;;;9.36;96.10;100684.42;1738940;82;20998;-41
2021/05/23 00:12:54;;;;;;;89.77;12.25;;;;;;;9.27;96.11;100685.37;1739179;82;20954;-41
2021/05/23 00:15:34;;;;;;;66.07;12.37;;;;;;;9.18;96.14;100688.44;1739137;82;21092;-41
2021/05/23 00:18:03;;;;;;;61.28;12.40;;;;;;;9.10;96.11;100688.11;1738890;82;20914;-41
2021/05/23 00:20:30;;;;;;;105.12;13.60;;;;;;;9.00;96.08;100685.58;1739037;82;21439;-41
2021/05/23 00:22:56;;;;;;;44.23;10.00;;;;;;;8.96;96.23;100692.06;1739109;82;21661;-41
2021/05/23 00:25:23;;;;;;;46.88;9.65;;;;;;;8.93;96.48;100686.51;1739220;82;21696;-40
2021/05/23 00:27:50;;;;;;;30.32;8.30;;;;;;;8.92;96.54;100689.96;1739105;82;21644;-40
2021/05/23 00:30:18;;;;;;;32.30;8.15;;;;;;;8.91;96.68;100691.67;1738936;82;21555;-40
2021/05/23 00:32:45;;;;;;;37.10;6.80;;;;;;;8.93;96.78;100692.09;1738966;82;21077;-40
2021/05/23 00:35:12;;;;;;;18.40;6.85;;;;;;;8.94;96.90;100691.22;1739018;82;20977;-40
2021/05/23 00:37:39;;;;;;;11.28;6.30;;;;;;;8.90;96.88;100684.80;1739195;82;20954;-40
2021/05/23 00:40:07;;;;;;;12.33;5.67;;;;;;;8.86;96.84;100685.69;1739278;82;21021;-40
2021/05/23 00:42:33;;;;;;;18.65;6.25;;;;;;;8.84;96.91;100679.69;1739180;82;21001;-40
2021/05/23 00:45:00;;;;;;;10.60;5.55;;;;;;;8.81;96.89;100686.59;1739100;82;21502;-40
2021/05/23 00:47:27;;;;;;;9.95;5.05;;;;;;;8.79;97.13;100686.61;1739238;82;20969;-40
2021/05/23 00:49:54;;;;;;;9.53;5.75;;;;;;;8.79;97.24;100687.91;1739187;82;20970;-40
2021/05/23 00:52:20;;;;;;;11.65;4.83;;;;;;;8.79;97.31;100689.61;1739101;82;21137;-41
2021/05/23 00:54:47;;;;;;;10.50;4.37;;;;;;;8.78;97.41;100686.19;1712104;82;21036;-41
2021/05/23 00:57:14;;;;;;;11.10;4.60;;;;;;;8.77;97.34;100685.77;1712237;82;20946;-41
2021/05/23 00:59:41;;;;;;;20.15;5.00;;;;;;;8.73;97.33;100691.83;1739080;82;21124;-39
2021/05/23 01:02:19;;;;;;;8.85;4.12;;;;;;;8.72;97.46;100678.50;1739324;82;21570;-38
2021/05/23 01:04:45;;;;;;;6.70;4.25;;;;;;;8.71;97.50;100680.63;1736254;82;21827;-40
2021/05/23 01:07:12;;;;;;;12.43;4.40;;;;;;;8.68;97.52;100675.08;1739127;82;21472;-40
2021/05/23 01:09:40;;;;;;;7.47;4.50;;;;;;;8.67;97.52;100675.08;1739200;82;21484;-40
2021/05/23 01:12:27;;;;;;;5.60;4.28;;;;;;;8.64;97.47;100670.81;1739071;82;20978;-40
2021/05/23 01:14:59;;;;;;;8.68;4.25;;;;;;;8.59;97.34;100675.98;1708401;82;20887;-40
2021/05/23 01:17:40;;;;;;;5.83;3.70;;;;;;;8.55;97.34;100674.30;1739295;82;21067;-40
2021/05/23 01:20:18;;;;;;;43.50;10.75;;;;;;;8.57;97.71;100694.50;1739198;82;20989;-40
2021/05/23 01:23:18;;;;;;;32.85;8.93;;;;;;;8.87;98.66;100680.11;1739276;82;20961;-40
2021/05/23 01:25:45;;;;;;;37.58;7.85;;;;;;;9.15;99.05;100679.42;1739170;82;21018;-40
2021/05/23 01:28:13;;;;;;;24.57;7.62;;;;;;;9.28;98.93;100678.03;1739017;82;20946;-40
2021/05/23 01:30:43;;;;;;;23.42;7.67;;;;;;;9.33;98.85;100684.02;1739194;82;21763;-40
2021/05/23 01:33:12;;;;;;;28.42;5.87;;;;;;;9.36;98.69;100693.02;1739284;82;21547;-39
2021/05/23 01:35:40;;;;;;;21.57;6.80;;;;;;;9.37;98.69;100691.31;1739091;82;20911;-40
2021/05/23 01:38:12;;;;;;;21.68;6.35;;;;;;;9.38;98.67;100695.15;1739066;82;21045;-39
2021/05/23 01:40:39;;;;;;;30.23;6.55;;;;;;;9.34;98.44;100698.19;1739137;82;21017;-40
2021/05/23 01:43:07;;;;;;;30.92;7.55;;;;;;;9.33;98.44;100694.34;1739126;82;21067;-40
2021/05/23 01:45:35;;;;;;;30.70;6.70;;;;;;;9.35;98.62;100700.35;1739074;82;20938;-41
2021/05/23 01:48:03;;;;;;;18.35;5.58;;;;;;;9.36;98.69;100705.94;1739252;82;20986;-40
2021/05/23 01:50:29;;;;;;;19.02;5.33;;;;;;;9.36;98.62;100704.64;1739167;82;21037;-40
2021/05/23 01:52:59;;;;;;;14.15;4.70;;;;;;;9.34;98.52;100707.23;1737900;82;20949;-40
2021/05/23 01:55:26;;;;;;;18.85;5.10;;;;;;;9.30;98.39;100707.30;1736192;82;20985;-40
2021/05/23 01:57:52;;;;;;;13.13;5.10;;;;;;;9.28;98.52;100714.20;1736136;82;20958;-39
2021/05/23 02:00:27;;;;;;;30.52;5.85;;;;;;;9.28;98.59;100714.20;1736293;82;20970;-41
2021/05/23 02:02:53;;;;;;;16.60;4.00;;;;;;;9.24;98.47;100724.98;1736147;82;21583;-40
2021/05/23 02:05:19;;;;;;;19.67;4.55;;;;;;;9.19;98.44;100719.84;1736353;82;21582;-42
2021/05/23 02:07:46;;;;;;;15.03;4.20;;;;;;;9.14;98.33;100717.75;1736157;82;21021;-41
2021/05/23 02:10:16;;;;;;;9.63;4.20;;;;;;;9.06;98.20;100709.22;1736228;82;21052;-41
2021/05/23 02:12:44;;;;;;;15.85;4.12;;;;;;;8.98;98.07;100710.56;1736160;82;20962;-40
2021/05/23 02:15:16;;;;;;;9.75;4.60;;;;;;;8.91;98.01;100714.06;1736063;82;21033;-40
2021/05/23 02:17:44;;;;;;;11.48;4.08;;;;;;;8.85;98.03;100708.95;1736376;82;20911;-40
2021/05/23 02:20:18;;;;;;;10.53;3.60;;;;;;;8.83;98.21;100712.83;1736129;82;21060;-40
2021/05/23 02:22:47;;;;;;;16.60;4.40;;;;;;;8.80;98.29;100718.43;1736117;82;20998;-41
2021/05/23 02:25:18;;;;;;;5.58;4.05;;;;;;;8.75;98.32;100720.61;1736270;82;20938;-41
2021/05/23 02:27:50;;;;;;;3.67;3.12;;;;;;;8.76;98.59;100717.61;1736159;82;20903;-40
2021/05/23 02:30:23;;;;;;;5.65;3.20;;;;;;;8.80;98.78;100721.88;1736199;82;21484;-41
2021/05/23 02:32:50;;;;;;;15.30;3.52;;;;;;;8.86;98.95;100724.87;1735073;82;21053;-41
2021/05/23 02:35:18;;;;;;;12.03;3.95;;;;;;;8.85;98.79;100720.12;1736159;82;21077;-40
2021/05/23 02:37:44;;;;;;;7.47;3.37;;;;;;;8.80;98.54;100718.02;1736413;82;20950;-41
2021/05/23 02:40:14;;;;;;;4.83;2.98;;;;;;;8.79;98.64;100716.30;1736269;82;20974;-41
2021/05/23 02:42:41;;;;;;;9.25;3.60;;;;;;;8.79;98.68;100715.01;1736261;82;20947;-40
2021/05/23 02:45:10;;;;;;;11.03;3.72;;;;;;;8.84;98.94;100717.53;1736114;82;21583;-41
2021/05/23 02:47:37;;;;;;;3.95;2.83;;;;;;;8.89;99.07;100720.52;1736284;82;20981;-41
2021/05/23 02:50:05;;;;;;;4.78;3.27;;;;;;;8.94;99.13;100717.04;1736122;82;21239;-41
2021/05/23 02:52:32;;;;;;;10.00;3.15;;;;;;;9.04;99.40;100705.79;1736354;82;21033;-41
2021/05/23 02:54:59;;;;;;;3.65;3.35;;;;;;;9.14;99.56;100705.28;1739085;82;20970;-40
2021/05/23 02:57:25;;;;;;;10.90;3.40;;;;;;;9.23;99.60;100705.64;1739206;82;21049;-40
2021/05/23 02:59:52;;;;;;;10.05;3.10;;;;;;;9.30;99.62;100709.88;1738983;82;21018;-40
2021/05/23 03:02:18;;;;;;;5.42;3.20;;;;;;;9.36;99.60;100712.39;1739133;82;21009;-40
2021/05/23 03:04:45;;;;;;;7.17;3.12;;;;;;;9.43;99.65;100703.70;1739137;82;20985;-40
2021/05/23 03:07:12;;;;;;;9.00;3.75;;;;;;;9.53;99.73;100704.48;1739150;82;20891;-41
2021/05/23 03:09:40;;;;;;;7.60;2.92;;;;;;;9.61;99.82;100699.23;1739038;82;20965;-41
2021/05/23 03:12:07;;;;;;;6.53;2.83;;;;;;;9.72;99.95;100697.38;1739108;82;21056;-41
2021/05/23 03:14:34;;;;;;;4.25;2.92;;;;;;;9.83;100.00;100690.80;1739107;82;21026;-41
2021/05/23 03:17:00;;;;;;;8.58;3.10;;;;;;;9.97;100.00;100686.75;1738976;82;20898;-40
2021/05/23 03:19:28;;;;;;;4.70;2.90;;;;;;;10.09;100.00;100688.33;1739027;82;21106;-41
2021/05/23 03:21:55;;;;;;;11.00;3.22;;;;;;;10.21;100.00;100685.59;1739095;82;21088;-40
2021/05/23 03:24:22;;;;;;;19.92;3.60;;;;;;;10.32;100.00;100681.57;1738934;82;21606;-40
2021/05/23 03:26:49;;;;;;;17.00;3.25;;;;;;;10.43;100.00;100674.98;1739032;82;20970;-40
2021/05/23 03:29:15;;;;;;;10.90;2.90;;;;;;;10.58;100.00;100676.49;1739102;82;20899;-40
2021/05/23 03:31:42;;;;;;;15.45;3.85;;;;;;;10.73;100.00;100671.52;1739150;82;21034;-41
2021/05/23 03:34:08;;;;;;;23.80;4.50;;;;;;;10.90;100.00;100669.11;1739088;82;21079;-40
2021/05/23 03:36:35;;;;;;;14.73;3.62;;;;;;;11.06;100.00;100665.82;1739080;82;20969;-40
2021/05/23 03:39:01;;;;;;;41.63;5.22;;;;;;;11.23;100.00;100660.77;1739035;82;20914;-40
2021/05/23 03:41:28;;;;;;;40.38;5.75;;;;;;;11.38;100.00;100663.55;1738910;82;20954;-41
2021/05/23 03:43:54;;;;;;;23.20;3.85;;;;;;;11.49;100.00;100666.35;1739131;82;21455;-41
2021/05/23 03:46:22;;;;;;;34.98;4.97;;;;;;;11.64;100.00;100664.33;1738904;82;21067;-40
2021/05/23 03:48:48;;;;;;;51.95;6.33;;;;;;;11.84;99.89;100661.33;1739066;82;20965;-40
2021/05/23 03:51:14;;;;;;;36.85;5.37;;;;;;;12.09;99.41;100662.61;1738965;82;21043;-40
2021/05/23 03:53:41;;;;;;;50.90;5.17;;;;;;;12.41;99.15;100655.41;1738954;81;21609;-40
2021/05/23 03:56:07;;;;;;;47.20;8.70;;;;;;;12.77;98.44;100656.72;1739038;82;21622;-40
2021/05/23 03:58:34;;;;;;;31.12;10.58;;;;;;;13.18;97.32;100657.86;1739090;82;21621;-41
2021/05/23 04:01:00;;;;;;;24.27;7.17;;;;;;;13.60;95.83;100654.63;1739002;82;21459;-41
2021/05/23 04:03:28;;;;;;;27.67;5.72;;;;;;;14.00;94.33;100662.58;1739031;82;20915;-41
2021/05/23 04:05:57;;;;;;;47.80;5.70;;;;;;;14.41;93.22;100665.29;1738987;82;20914;-41
2021/05/23 04:08:24;;;;;;;36.00;5.22;;;;;;;14.85;91.34;100670.00;1738953;82;21507;-41
2021/05/23 04:10:58;;;;;;;27.07;11.05;;;;;;;15.25;89.51;100663.89;1738974;82;21124;-41
2021/05/23 04:13:21;;;;;;;21.75;7.62;;;;;;;15.60;87.18;100663.12;1738014;82;21522;-41
2021/05/23 04:15:48;;;;;;;14.95;4.55;;;;;;;15.95;84.53;100660.98;1739255;82;21001;-41
2021/05/23 04:18:14;;;;;;;3.58;2.20;;;;;;;16.31;82.17;100662.24;1739070;82;20938;-41
2021/05/23 04:20:41;;;;;;;2.12;1.17;;;;;;;16.68;78.92;100656.00;1739259;82;21586;-41
2021/05/23 04:23:07;;;;;;;2.08;1.15;;;;;;;17.02;75.42;100652.00;1739140;82;21063;-42
2021/05/23 04:25:34;;;;;;;3.17;1.32;;;;;;;17.33;71.51;100653.33;1739087;82;21499;-41
2021/05/23 04:28:01;;;;;;;4.30;1.57;;;;;;;17.61;68.45;100658.64;1739128;82;21526;-43
2021/05/23 04:30:27;;;;;;;4.55;1.40;;;;;;;17.88;66.31;100647.84;1739169;82;21035;-41
2021/05/23 04:32:55;;;;;;;17.67;2.80;;;;;;;18.23;64.46;100651.91;1739361;82;20978;-41
2021/05/23 04:35:22;;;;;;;9.98;1.60;;;;;;;18.51;62.11;100659.30;1739152;82;21048;-41
2021/05/23 04:37:48;;;;;;;10.88;1.80;;;;;;;18.69;60.28;100661.92;1739171;82;21009;-41
2021/05/23 04:40:16;;;;;;;5.08;1.20;;;;;;;18.95;59.68;100663.73;1739280;82;21069;-41
2021/05/23 04:42:42;;;;;;;1.05;0.80;;;;;;;19.29;58.52;100661.17;1739203;82;20974;-41
2021/05/23 04:45:11;;;;;;;4.80;1.35;;;;;;;19.63;57.15;100664.67;1739247;82;21427;-41
2021/05/23 04:47:38;;;;;;;2.35;0.90;;;;;;;19.82;56.05;100669.29;1739150;82;21059;-41
2021/05/23 04:50:06;;;;;;;1.20;1.10;;;;;;;19.96;55.63;100670.36;1739069;82;20942;-42
2021/05/23 04:52:32;;;;;;;5.25;0.90;;;;;;;20.12;55.01;100669.53;1739200;82;20955;-42
2021/05/23 04:54:59;;;;;;;3.90;1.20;;;;;;;20.36;54.04;100664.22;1736548;82;20982;-42
2021/05/23 04:57:26;;;;;;;5.15;0.90;;;;;;;20.60;53.35;100667.70;1736371;82;20970;-42
2021/05/23 04:59:53;;;;;;;1.90;0.78;;;;;;;20.90;52.48;100666.03;1736279;82;21088;-42
2021/05/23 05:02:19;;;;;;;3.92;1.10;;;;;;;21.24;51.85;100671.45;1736237;82;20934;-42
2021/05/23 05:04:46;;;;;;;6.35;0.90;;;;;;;21.51;50.95;100670.71;1736321;82;21010;-42
2021/05/23 05:07:14;;;;;;;1.90;0.68;;;;;;;21.58;49.04;100667.70;1736401;82;21401;-42
2021/05/23 05:09:40;;;;;;;1.12;0.82;;;;;;;21.39;50.37;100667.53;1736339;82;20942;-42
2021/05/23 05:12:09;;;;;;;9.35;0.90;;;;;;;21.41;50.49;100669.59;1736201;82;21022;-42
2021/05/23 05:14:35;;;;;;;0.78;0.75;;;;;;;21.59;49.70;100668.07;1736208;82;20871;-42
2021/05/23 05:17:02;;;;;;;0.78;0.70;;;;;;;21.70;49.52;100674.89;1736209;82;20898;-43
2021/05/23 05:19:28;;;;;;;0.90;0.85;;;;;;;21.93;49.70;100670.80;1736159;82;20990;-42
2021/05/23 05:21:55;;;;;;;3.12;1.10;;;;;;;22.23;48.54;100672.45;1736286;82;20970;-42
2021/05/23 05:24:21;;;;;;;2.10;1.50;;;;;;;22.49;47.28;100671.72;1736283;82;21090;-42
2021/05/23 05:26:48;;;;;;;3.22;1.00;;;;;;;22.75;47.86;100673.11;1736329;82;20950;-42
2021/05/23 05:29:14;;;;;;;1.45;0.80;;;;;;;23.05;47.36;100674.17;1736252;82;20910;-42
2021/05/23 05:31:41;;;;;;;3.85;1.30;;;;;;;23.34;47.06;100673.14;1736144;82;21041;-42
2021/05/23 05:34:07;;;;;;;3.08;1.22;;;;;;;23.72;46.27;100663.02;1736333;82;20954;-42
2021/05/23 05:36:34;;;;;;;3.20;0.80;;;;;;;24.07;45.99;100668.92;1736255;82;21039;-42
2021/05/23 05:39:01;;;;;;;1.32;0.60;;;;;;;24.17;43.89;100672.23;1736284;82;20989;-41
2021/05/23 05:41:28;;;;;;;5.17;0.60;;;;;;;24.09;43.32;100672.30;1736338;82;21512;-41
2021/05/23 05:43:54;;;;;;;3.00;0.70;;;;;;;24.16;41.69;100674.52;1736324;82;21642;-41
2021/05/23 05:46:20;;;;;;;16.15;1.60;;;;;;;24.22;41.84;100674.06;1736347;82;21480;-42
2021/05/23 05:48:47;;;;;;;6.72;0.57;;;;;;;24.34;41.09;100680.25;1736370;82;21808;-41
2021/05/23 05:51:16;;;;;;;3.02;1.07;;;;;;;24.30;39.73;100675.66;1736110;82;20973;-41
2021/05/23 05:53:44;;;;;;;4.20;0.70;;;;;;;24.06;40.62;100679.12;1738612;82;20883;-41
2021/05/23 05:56:10;;;;;;;8.20;1.27;;;;;;;24.06;40.79;100680.94;1745667;82;21002;-42
2021/05/23 05:58:37;;;;;;;1.98;0.60;;;;;;;24.10;40.87;100679.27;1745336;82;21496;-42
2021/05/23 06:01:04;;;;;;;6.55;0.82;;;;;;;24.10;39.20;100681.91;1745662;82;21073;-41
2021/05/23 06:03:31;;;;;;;3.90;1.00;;;;;;;24.22;39.04;100676.21;1745858;81;21487;-42
2021/05/23 06:05:58;;;;;;;4.33;0.62;;;;;;;24.31;39.79;100680.48;1745856;81;20998;-41
2021/05/23 06:08:25;;;;;;;1.87;0.80;;;;;;;24.14;38.20;100679.91;1745807;82;20987;-41
2021/05/23 06:10:51;;;;;;;3.50;0.42;;;;;;;23.65;37.84;100681.59;1746218;81;20990;-42
2021/05/23 06:13:17;;;;;;;14.13;1.67;;;;;;;23.30;37.23;100683.09;1751419;80;21080;-41
2021/05/23 06:15:44;;;;;;;4.17;0.57;;;;;;;23.20;37.19;100688.12;1749041;82;21065;-41
2021/05/23 06:18:10;;;;;;;4.60;0.70;;;;;;;23.19;36.82;100683.79;1744341;82;21053;-41
2021/05/23 06:20:37;;;;;;;4.80;0.82;;;;;;;23.15;37.45;100688.05;1741032;81;21045;-41
2021/05/23 06:23:04;;;;;;;5.28;0.70;;;;;;;23.20;37.81;100685.48;1743484;82;21392;-42
2021/05/23 06:25:31;;;;;;;4.35;0.55;;;;;;;23.31;38.67;100682.59;1742499;82;21044;-41
2021/05/23 06:27:57;;;;;;;3.30;0.82;;;;;;;23.50;37.35;100683.52;1742321;82;20906;-41
2021/05/23 06:30:25;;;;;;;8.88;0.90;;;;;;;23.61;36.97;100682.73;1739656;82;20966;-41
2021/05/23 06:32:51;;;;;;;10.85;0.80;;;;;;;23.71;37.29;100675.86;1740680;82;21001;-41
2021/05/23 06:35:18;;;;;;;11.30;0.95;;;;;;;23.81;37.80;100681.34;1745680;81;20974;-41
2021/05/23 06:37:46;;;;;;;4.03;0.60;;;;;;;23.86;36.09;100690.25;1745660;82;21885;-42
2021/05/23 06:40:14;;;;;;;3.22;0.57;;;;;;;23.68;36.98;100686.66;1719972;83;21021;-42
2021/05/23 06:42:40;;;;;;;1.67;0.80;;;;;;;23.55;37.82;100689.31;1744664;82;20966;-41
2021/05/23 06:45:08;;;;;;;14.05;1.10;;;;;;;23.60;36.66;100681.91;1743039;81;20891;-41
2021/05/23 06:47:35;;;;;;;12.05;0.75;;;;;;;23.65;36.62;100682.91;1739298;82;21492;-42
2021/05/23 06:50:01;;;;;;;5.30;0.80;;;;;;;23.47;36.70;100683.23;1739276;82;21695;-42
2021/05/23 06:52:27;;;;;;;2.20;0.60;;;;;;;23.34;35.34;100689.84;1740073;82;21389;-42
2021/05/23 06:54:54;;;;;;;3.02;0.70;;;;;;;23.17;36.31;100693.61;1746948;82;20968;-42
2021/05/23 06:57:21;;;;;;;8.73;0.60;;;;;;;23.11;36.54;100694.00;1745508;81;20981;-42
2021/05/23 06:59:47;;;;;;;3.52;0.60;;;;;;;23.13;36.09;100694.77;1723964;82;20934;-42
2021/05/23 07:02:14;;;;;;;15.70;1.35;;;;;;;23.11;36.32;100695.33;1750745;80;22175;-42
2021/05/23 07:04:41;;;;;;;4.90;0.80;;;;;;;23.10;37.19;100705.52;1751567;82;21040;-42
2021/05/23 07:07:08;;;;;;;3.75;0.60;;;;;;;23.03;37.62;100709.52;1751443;82;21064;-42
2021/05/23 07:09:36;;;;;;;2.75;0.57;;;;;;;23.04;37.33;100707.25;1747112;82;21487;-42
2021/05/23 07:12:04;;;;;;;4.78;0.78;;;;;;;23.06;37.98;100712.81;1746594;82;20921;-42
2021/05/23 07:14:31;;;;;;;5.72;0.60;;;;;;;23.06;37.82;100715.91;1747012;80;21076;-42
2021/05/23 07:16:59;;;;;;;3.20;0.78;;;;;;;23.04;38.49;100716.49;1721342;83;21040;-41
2021/05/23 07:19:26;;;;;;;3.77;0.90;;;;;;;22.85;39.41;100727.44;1721434;83;20918;-41
2021/05/23 07:21:53;;;;;;;10.88;1.10;;;;;;;22.72;38.41;100717.67;1721418;83;21009;-42
2021/05/23 07:24:19;;;;;;;9.13;0.80;;;;;;;22.56;39.30;100719.16;1721635;83;20913;-42
2021/05/23 07:26:46;;;;;;;2.17;0.78;;;;;;;22.63;40.71;100727.06;1721656;83;21009;-42
2021/05/23 07:29:12;;;;;;;4.40;0.70;;;;;;;22.75;41.02;100728.52;1721522;82;21092;-41
2021/05/23 07:31:40;;;;;;;1.15;0.90;;;;;;;22.74;40.94;100729.00;1721602;83;20918;-41
2021/05/23 07:34:07;;;;;;;3.30;0.85;;;;;;;22.63;40.52;100727.52;1721740;83;21001;-41
2021/05/23 07:36:33;;;;;;;11.03;0.80;;;;;;;22.44;41.18;100724.72;1721622;83;20922;-42
2021/05/23 07:38:59;;;;;;;3.42;1.02;;;;;;;22.29;41.70;100730.99;1721593;83;21125;-41
2021/05/23 07:41:26;;;;;;;26.17;2.08;;;;;;;22.18;41.10;100735.14;1721453;83;21025;-43
2021/05/23 07:43:53;;;;;;;22.13;1.42;;;;;;;22.12;41.89;100732.06;1692846;83;20958;-42
2021/05/23 07:46:19;;;;;;;27.65;1.77;;;;;;;22.06;40.10;100732.80;1721568;83;21021;-42
2021/05/23 07:48:46;;;;;;;25.02;1.72;;;;;;;21.79;40.94;100741.97;1721590;83;20914;-42
2021/05/23 07:51:13;;;;;;;13.48;1.10;;;;;;;21.64;41.39;100740.62;1721568;83;21107;-42
2021/05/23 07:53:39;;;;;;;10.20;1.10;;;;;;;21.60;42.26;100739.09;1721509;83;21597;-42
2021/05/23 07:56:06;;;;;;;16.87;1.30;;;;;;;21.59;41.93;100741.35;1719491;83;21490;-42
2021/05/23 07:58:32;;;;;;;2.75;0.72;;;;;;;21.47;42.60;100750.84;1719203;83;20906;-42
2021/05/23 08:00:59;;;;;;;8.80;0.90;;;;;;;21.39;42.20;100746.02;1719392;83;20989;-42
2021/05/23 08:03:27;;;;;;;3.10;0.93;;;;;;;21.27;42.96;100747.22;1719165;83;21056;-42
2021/05/23 08:05:54;;;;;;;15.15;1.02;;;;;;;21.30;43.44;100745.72;1719277;83;20891;-42
2021/05/23 08:10:18;;;;;;;1.02;0.60;;;;;;;21.35;43.45;100740.56;1776430;79;22629;-42
2021/05/23 08:12:44;;;;;;;3.55;0.85;;;;;;;21.38;44.66;100737.75;1749155;82;20906;-41
2021/05/23 08:15:13;;;;;;;7.12;1.02;;;;;;;21.51;45.25;100742.30;1749086;82;21630;-41
2021/05/23 08:17:41;;;;;;;5.17;0.88;;;;;;;21.63;43.92;100745.98;1749090;82;20951;-41
2021/05/23 08:20:10;;;;;;;8.78;1.60;;;;;;;21.62;43.59;100742.97;1749015;82;20938;-41
2021/05/23 08:22:37;;;;;;;4.90;1.00;;;;;;;21.45;44.61;100744.81;1748926;82;20899;-42
2021/05/23 08:25:06;;;;;;;17.23;1.37;;;;;;;21.40;44.74;100741.62;1749022;82;20962;-42
2021/05/23 08:27:34;;;;;;;8.18;1.10;;;;;;;21.42;44.95;100737.11;1749000;82;21074;-42
2021/05/23 08:30:00;;;;;;;8.73;1.22;;;;;;;21.61;44.86;100744.73;1724172;82;20926;-42
2021/05/23 08:32:27;;;;;;;1.60;1.37;;;;;;;21.81;44.47;100743.55;1689738;83;21057;-42
2021/05/23 08:34:54;;;;;;;1.92;1.10;;;;;;;21.83;44.22;100735.56;1719293;83;21581;-42
2021/05/23 08:37:20;;;;;;;1.82;0.93;;;;;;;21.82;44.65;100727.28;1719213;83;21590;-42
2021/05/23 08:39:47;;;;;;;3.70;1.02;;;;;;;21.89;44.56;100734.34;1715427;82;21807;-42
2021/05/23 08:42:13;;;;;;;4.97;1.17;;;;;;;21.88;44.48;100730.84;1647331;87;20961;-41
2021/05/23 08:44:41;;;;;;;15.48;1.10;;;;;;;21.71;44.72;100732.34;1679913;84;21019;-41
2021/05/23 08:47:08;;;;;;;8.95;1.07;;;;;;;21.66;45.66;100740.06;1684575;84;20995;-42
2021/05/23 08:49:34;;;;;;;7.15;1.12;;;;;;;21.62;45.30;100736.38;1679601;85;20979;-42
2021/05/23 08:52:01;;;;;;;35.13;1.57;;;;;;;21.64;45.57;100734.50;1694073;84;21083;-41
2021/05/23 08:54:28;;;;;;;9.15;1.17;;;;;;;21.58;45.17;100737.02;1680008;85;21042;-41
2021/05/23 08:56:54;;;;;;;8.80;1.25;;;;;;;21.63;46.65;100733.64;1680016;85;20944;-41
2021/05/23 08:59:23;;;;;;;5.70;1.00;;;;;;;21.77;46.17;100730.67;1680140;84;21019;-41
2021/05/23 09:01:50;;;;;;;5.87;1.10;;;;;;;21.96;46.09;100727.74;1680584;84;20975;-42
2021/05/23 09:04:18;;;;;;;6.72;1.12;;;;;;;22.10;45.69;100722.47;1679939;85;21075;-41
2021/05/23 09:06:46;;;;;;;1.20;0.70;;;;;;;22.23;44.95;100717.27;1679625;84;21028;-40
2021/05/23 09:09:15;;;;;;;3.10;0.90;;;;;;;22.31;45.06;100716.75;1662744;86;20954;-42
2021/05/23 09:11:54;;;;;;;4.05;1.20;;;;;;;22.60;45.93;100717.17;1659897;86;21033;-42
2021/05/23 09:14:34;;;;;;;0.88;0.80;;;;;;;22.89;44.25;100714.41;1652923;85;21029;-40
2021/05/23 09:17:05;;;;;;;7.50;0.90;;;;;;;23.17;43.77;100706.81;1660012;86;21114;-41
2021/05/23 09:19:44;;;;;;;6.70;1.20;;;;;;;23.39;43.70;100710.66;1660048;86;21021;-41
2021/05/23 09:22:13;;;;;;;1.00;0.80;;;;;;;23.58;42.39;100702.77;1659652;85;21009;-42
2021/05/23 09:24:57;;;;;;;4.20;1.47;;;;;;;23.69;41.13;100694.95;1652630;85;21570;-41
2021/05/23 09:27:28;;;;;;;2.92;1.10;;;;;;;23.64;41.93;100688.66;1664365;84;21616;-42
2021/05/23 09:30:05;;;;;;;6.00;1.02;;;;;;;23.67;41.66;100694.21;1659492;86;21171;-42
2021/05/23 09:32:40;;;;;;;5.37;0.80;;;;;;;23.72;42.65;100691.22;1659701;86;21021;-42
2021/05/23 09:35:09;;;;;;;3.58;1.32;;;;;;;23.86;42.31;100700.36;1659833;86;20938;-41
2021/05/23 09:37:35;;;;;;;2.80;0.90;;;;;;;23.87;41.86;100698.54;1659583;86;21013;-41
2021/05/23 09:40:15;;;;;;;3.60;0.80;;;;;;;23.61;42.15;100695.48;1659544;86;21001;-43
2021/05/23 09:42:52;;;;;;;8.33;1.10;;;;;;;23.34;43.03;100704.37;1659684;86;21114;-42
2021/05/23 09:45:20;;;;;;;2.27;1.00;;;;;;;23.34;44.21;100711.42;1659508;86;21025;-42
2021/05/23 09:47:53;;;;;;;2.05;0.98;;;;;;;23.49;43.45;100702.92;1659514;86;21507;-41
2021/05/23 09:50:40;;;;;;;5.35;3.05;;;;;;;23.32;43.50;100706.73;1659591;86;21526;-41
2021/05/23 09:53:28;;;;;;;2.00;1.90;;;;;;;23.15;43.67;100713.98;1652647;86;21058;-42
2021/05/23 09:56:01;;;;;;;1.62;1.52;;;;;;;23.19;44.09;100714.15;1664335;86;22247;-41
2021/05/23 09:58:37;;;;;;;4.40;2.50;;;;;;;23.24;43.98;100713.36;1652566;86;21006;-41
2021/05/23 10:01:06;;;;;;;6.37;1.10;;;;;;;23.22;44.03;100716.58;1659608;86;21002;-41
2021/05/23 10:03:40;;;;;;;1.30;1.12;;;;;;;23.15;45.26;100722.38;1659492;86;21514;-41
2021/05/23 10:06:08;;;;;;;3.90;1.85;;;;;;;23.01;45.30;100724.62;1659599;85;20939;-42
2021/05/23 10:08:35;;;;;;;9.50;5.37;;;;;;;22.82;45.83;100731.11;1659487;85;21035;-43
2021/05/23 10:11:02;;;;;;;31.07;2.70;;;;;;;22.73;46.42;100725.95;1659571;85;20977;-42
2021/05/23 10:13:29;;;;;;;16.77;2.70;;;;;;;22.84;46.04;100719.15;1652574;85;20919;-41
2021/05/23 10:15:56;;;;;;;54.70;3.12;;;;;;;23.03;46.57;100725.36;1652643;86;21030;-41
2021/05/23 10:18:26;;;;;;;6.47;1.17;;;;;;;23.33;47.08;100721.63;1652804;86;21546;-42
2021/05/23 10:20:55;;;;;;;10.05;1.60;;;;;;;23.65;44.89;100721.22;1659627;85;21077;-41
2021/05/23 10:23:32;;;;;;;34.67;2.75;;;;;;;23.92;45.11;100720.23;1659386;85;20997;-41
2021/05/23 10:26:02;;;;;;;16.82;1.85;;;;;;;24.09;43.91;100726.49;1656422;86;21472;-41
2021/05/23 10:28:28;;;;;;;35.60;2.10;;;;;;;24.18;44.27;100729.45;1659544;86;21593;-42
2021/05/23 10:30:56;;;;;;;12.65;1.80;;;;;;;24.13;42.03;100722.33;1659713;86;21488;-42
2021/05/23 10:33:24;;;;;;;23.98;1.80;;;;;;;24.04;41.46;100722.51;1659506;86;21057;-43
2021/05/23 10:35:52;;;;;;;19.12;2.72;;;;;;;23.83;42.29;100726.52;1659414;86;21535;-41
2021/05/23 10:38:22;;;;;;;5.92;1.45;;;;;;;23.68;41.97;100719.67;1652584;86;20913;-41
2021/05/23 10:40:58;;;;;;;17.85;1.62;;;;;;;23.48;42.52;100733.78;1664240;84;21511;-43
2021/05/23 10:43:32;;;;;;;2.95;1.22;;;;;;;23.18;43.41;100728.30;1664345;86;20989;-43
2021/05/23 10:46:12;;;;;;;1.52;1.20;;;;;;;23.11;43.31;100735.78;1659544;85;21655;-46
2021/05/23 10:48:41;;;;;;;8.45;1.52;;;;;;;22.90;43.56;100734.11;1652581;86;21014;-42
2021/05/23 10:51:15;;;;;;;6.87;1.37;;;;;;;22.74;43.43;100739.55;1658352;86;20942;-42
2021/05/23 10:53:43;;;;;;;11.50;1.73;;;;;;;22.74;44.06;100738.23;1659712;85;21078;-42
2021/05/23 10:56:31;;;;;;;63.02;3.47;;;;;;;23.00;45.06;100741.41;1652601;85;20997;-42
2021/05/23 10:59:04;;;;;;;7.53;1.20;;;;;;;23.37;42.62;100741.61;1652501;86;21101;-42
2021/05/23 11:01:48;;;;;;;2.08;1.10;;;;;;;23.50;41.99;100736.34;1659448;86;20922;-41
2021/05/23 11:04:17;;;;;;;;;;;;;;;23.47;40.94;100736.06;1662034;86;20970;-42
2021/05/23 11:06:46;;;;;;;1.60;1.00;;;;;;;23.42;41.97;100732.89;1652681;86;20200;-41
2021/05/23 11:09:24;;;;;;;5.62;1.15;;;;;;;23.54;42.44;100740.45;1659461;85;21645;-41
2021/05/23 11:11:49;;;;;;;23.27;2.25;;;;;;;23.74;41.34;100729.81;1659212;85;21365;-42
2021/05/23 11:14:22;;;;;;;12.00;1.75;;;;;;;23.88;41.03;100730.16;1659344;86;20918;-42
2021/05/23 11:16:56;;;;;;;2.92;0.90;;;;;;;24.04;39.99;100732.59;1659504;86;20969;-43
2021/05/23 11:19:26;;;;;;;12.00;1.95;;;;;;;23.97;39.43;100731.31;1659408;85;21041;-41
2021/05/23 11:21:53;;;;;;;6.28;1.37;;;;;;;23.72;40.69;100726.44;1652678;86;20975;-41
2021/05/23 11:24:34;;;;;;;22.85;2.02;;;;;;;23.95;40.33;100726.13;1659517;86;21110;-41
2021/05/23 11:27:16;;;;;;;14.07;2.83;;;;;;;24.09;39.65;100721.20;1666190;85;21073;-41
2021/05/23 11:29:50;;;;;;;1.95;0.90;;;;;;;24.28;40.48;100723.85;1695637;83;20986;-42
2021/05/23 11:32:17;;;;;;;1.87;1.10;;;;;;;24.54;39.25;100714.48;1701457;83;21461;-42